17th Annual Falcon 5K Run

back to results

Aug. 15, 2009

17th Annual Falcon 5K Run
Dearborn, Mi
Provided by Gary Olsen


Overall Male Open Winners
Place Name City Bib No Age Overall Time Pace
1 Aaron Moore Taylor 2 16 1 17:46 5:44/M
2 Stephen Kerr Dearborn MI 118 18 2 17:47 5:44/M
3 Alec Orner Dearborn MI 219 16 3 17:54 5:46/M
Overall Male Masters Winners
Place Name City Bib No Age Overall Time Pace
1 John Tarkowski Northville MI 78 56 8 18:18 5:54/M
2 George Sveda Farmington Hills M 142 48 16 19:20 6:14/M
3 Kurt Schneider Harper Woods MI 59 50 19 19:48 6:23/M
Male 14 and under
Place Name City Bib No Age Overall Time Pace
1 Griffin Miller Dearborn 40 13 15 19:11 6:11/M
2 Mike Grawburg Dearborn 162 14 25 20:42 6:41/M
3 Perry Bender Detroit MI 197 14 26 20:45 6:42/M
4 Alec Klott 222 14 29 21:14 6:51/M
5 Ethan Ottoy St Clair Shores MI 249 14 34 21:39 6:59/M
6 Kevin Sekerak Dearborn Hts MI 133 14 47 23:22 7:32/M
7 Everett Ottoy St Clair Shores MI 248 12 55 24:21 7:51/M
8 Jonathan Marcyan Dearborn Hgts. MI 173 13 64 25:13 8:08/M
9 David Bailey Canton 160 14 69 25:42 8:17/M
10 Stephen Lietz Dearborn 102 12 72 25:56 8:22/M
11 Dane Miller Dearborn 41 11 73 25:56 8:22/M
12 C.j. Reihnardt Dearborn MI 270 13 80 26:31 8:33/M
13 Peyton Schock Dearborn MI 181 10 86 27:24 8:50/M
14 Jarod Ritchie Dearborn 147 12 101 30:28 9:50/M
Male 15 to 19
Place Name City Bib No Age Overall Time Pace
1 Christopher Lopez Livonia 161 17 4 18:01 5:49/M
2 Matthew Mangulabnan Livonia 35 15 5 18:04 5:50/M
3 Jacob Mack Dearborn MI 47 19 6 18:12 5:52/M
4 Duncan Miller Dearborn 39 17 7 18:15 5:53/M
5 John Lietz Dearborn MI 101 17 9 18:22 5:55/M
6 Paul Corsi Dearborn Hghts 107 18 10 18:39 6:01/M
7 Jared Hoffman Dearborn MI 218 16 12 18:49 6:04/M
8 Joseph Crachiola Saint Clair Shores 201 15 17 19:29 6:17/M
9 Jake Grabowski Dearborn 43 16 18 19:40 6:21/M
10 Stephen Osinski Saint Clair Shores 205 16 20 19:54 6:25/M
11 Brian Moore Taylor 3 16 22 19:57 6:26/M
12 Thomas Jurczyk Dearborn 159 15 32 21:35 6:58/M
13 Adam Savat Dearborn 153 15 33 21:39 6:59/M
14 Lucas Bochenek Dearborn 138 16 36 21:57 7:05/M
15 Andrew Kus W. Bloomfield 92 17 39 22:38 7:18/M
16 Matthew J Geiger Dearborn MI 269 19 44 23:19 7:31/M
17 Jeremy Mack Dearborn 48 15 45 23:21 7:32/M
18 John White Livonia 69 18 48 23:37 7:37/M
19 Shaun Range Dearborn MI 172 19 49 23:40 7:38/M
20 Alex Dwornick Southgate 18 19 53 24:14 7:49/M
21 Gabriel Arroyo Dearborn Hgts. MI 183 19 61 24:45 7:59/M
22 Michael Brichtd Dearborn MI 184 15 65 25:16 8:09/M
23 Aaron Radin Waterford MI 134 19 93 28:41 9:15/M
24 Joel Szalay Dearborn MI 194 17 98 30:03 9:42/M
25 Kevin Keeley Dearborn MI 198 16 106 30:51 9:57/M
26 Ashraf Aborlchedr Dearborn Hgts. MI 227 19 114 32:03 10:20/M
Male 20 to 24
Place Name City Bib No Age Overall Time Pace
1 Alex Salinas Dearborn MI 17 20 11 18:46 6:03/M
2 Chris Naida Dearborn 9 24 13 18:50 6:05/M
3 David Mincel Dearborn Heights M 82 23 50 23:43 7:39/M
4 Lucas Dwornick Southgate 19 21 58 24:36 7:56/M
5 Tom Ludwick Dearborn MI 71 22 60 24:41 7:58/M
6 Jeff Cheek Canton 10 23 63 25:05 8:05/M
7 Andrew Goode Dearborn MI 191 22 79 26:24 8:31/M
Male 25 to 29
Place Name City Bib No Age Overall Time Pace
1 Gary Gallagher Ann Arbor 15 29 14 18:59 6:07/M
2 Matthew Domako Canton MI 76 26 66 25:29 8:13/M
Male 30 to 34
Place Name City Bib No Age Overall Time Pace
1 John Salinas Dearborn MI 247 32 30 21:16 6:52/M
2 Donald E. Patton Canton 54 31 38 22:37 7:18/M
3 Daniel Deegan 263 30 43 23:12 7:29/M
4 Marc Cerelli Dearborn MI 87 34 84 27:15 8:47/M
5 Tony Conniff Northville MI 278 31 89 28:08 9:05/M
6 Jorge Malave Dearborn Hgts. 94 32 97 29:43 9:35/M
7 Shaun Harvey Dearborn MI 272 31 115 33:13 10:43/M
8 Sam Olson Redford 62 31 117 33:49 10:55/M
Male 35 to 39
Place Name City Bib No Age Overall Time Pace
1 Shane Beauchamp Dearborn MI 261 35 28 20:55 6:45/M
2 Adam Jones Dearborn 120 38 42 23:08 7:28/M
3 Jeremy Runyon St.clair Shores 157 39 57 24:33 7:55/M
4 Ray Radwan Dearborn MI 176 35 92 28:32 9:12/M
5 Dale Gehringer Allen Park MI 232 35 107 31:01 10:00/M
Male 40 to 44
Place Name City Bib No Age Overall Time Pace
1 Brian Dziadzio Dearborn MI 224 43 21 19:55 6:25/M
2 Alex Ottoy St Clair Shores MI 250 41 27 20:46 6:42/M
3 Tim Schock Dearborn MI 180 43 85 27:24 8:50/M
4 Jason Ritchie Dearborn 148 40 108 31:05 10:02/M
5 Clinton Bailey-Bey Detroit MI 268 42 119 34:19 11:04/M
6 George II Sawaya Westland 128 44 121 38:06 12:17/M
Male 45 to 49
Place Name City Bib No Age Overall Time Pace
1 Dave Mann Detroit MI 33 48 23 20:05 6:29/M
2 Kevin Sherwood Royal Oak MI 14 47 37 22:18 7:12/M
3 Dean Johnson Plymouth MI 216 47 40 22:55 7:24/M
4 Matt Niles Canton MI 11 48 62 25:04 8:05/M
5 Joe Umlauf Dearborn MI 203 49 67 25:39 8:16/M
6 Reynold Mirabitur Westland MI 97 48 70 25:46 8:19/M
7 Perry Strautz Livonia MI 243 48 74 25:59 8:23/M
8 Carl Myler Dearborn MI 265 46 75 26:02 8:24/M
9 William Cicala Dearborn Hgts. 5 48 95 29:04 9:23/M
10 Jeffrey Long Livonia 55 48 96 29:08 9:24/M
11 Tim Kolling Dearborn Hgts. MI 36 48 104 30:45 9:55/M
12 Joe Keeler Dearborn MI 199 46 105 30:50 9:57/M
13 Michael Dwornick Southgate 20 47 110 31:31 10:10/M
14 John Kenrick Dearborn MI 245 46 111 31:33 10:11/M
15 Paul Michel Bloomfield Hills M 239 48 113 31:58 10:19/M
Male 50 to 54
Place Name City Bib No Age Overall Time Pace
1 William Rivard Dearborn MI 220 51 31 21:23 6:54/M
2 Bob Lewis Dearborn MI 273 53 35 21:47 7:02/M
3 John Yurchis Wayne 32 54 41 23:06 7:27/M
4 Tim Geiger Dearborn MI 256 53 54 24:20 7:51/M
5 Donald McKeon Grosse Pte. Park M 209 51 56 24:31 7:55/M
6 Allen Duncan Dearborn MI 254 52 59 24:37 7:56/M
7 Michael Tucker Beverly Hills MI 110 51 68 25:40 8:17/M
8 Tom MacDonald Wayne 13 50 76 26:02 8:24/M
9 Domingo Valadez Temperance MI 31 50 87 27:31 8:53/M
10 Mark Gardner Dearborn MI 131 51 102 30:38 9:53/M
11 Michael Brosious Westland MI 154 51 103 30:38 9:53/M
12 Alan Sparks Dearborn 123 54 112 31:47 10:15/M
Male 55 to 59
Place Name City Bib No Age Overall Time Pace
1 Robert Cosand Saint Clair Shores 207 56 77 26:06 8:25/M
2 Francis Urbiel Livonia MI 80 57 81 26:33 8:34/M
3 Donald Warner Plymouth MI 228 59 82 26:41 8:36/M
4 Tom Budd Livonia MI 141 57 83 26:59 8:42/M
5 Tom Knzmanich 279 57 90 28:13 9:06/M
6 Richard Porte Dearborn MI 58 58 99 30:07 9:43/M
7 Arthur Walker Detroit MI 25 59 109 31:25 10:08/M
8 Steve Gellman Grosse Pointe 29 57 118 34:13 11:02/M
Male 60 to 64
Place Name City Bib No Age Overall Time Pace
1 Jerry Mittman Northville MI 99 64 51 24:02 7:45/M
Male 65 to 69
Place Name City Bib No Age Overall Time Pace
1 James Carlton White Lake MI 252 66 24 20:09 6:30/M
2 Ron Fedoronko Warren MI 177 66 71 25:50 8:20/M
3 Ray Joaquin Southgate MI 234 65 88 27:55 9:00/M
4 Dan Hendren Taylor MI 174 69 91 28:21 9:09/M
5 Paul Leece Livonia MI 27 67 100 30:21 9:47/M
6 Archie Pollard Detroit MI 139 67 120 35:30 11:27/M
7 John Hibler Dearborn Hgts. MI 56 68 122 38:50 12:32/M
Male 70 to 74
Place Name City Bib No Age Overall Time Pace
1 Richard Peters South Lyon MI 255 71 94 28:46 9:17/M
Male 75 & Up
Place Name City Bib No Age Overall Time Pace
1 Tom Whalen Ann Arbor MI 244 77 116 33:45 10:53/M
No Age Given
Place Name City Bib No Age Overall Time Pace
1 John Cartlidge Dayton OH 167 99 46 23:21 7:32/M
2 Mike Carpenter Dearborn Hgts. MI 168 99 52 24:05 7:46/M
3 Unknown Prosi Dearborn MI 262 99 78 26:08 8:26/M



Overall Female Open Winners
Place Name City Bib No Age Overall Time Pace
1 Emily Masters Dearborn MI 108 25 1 19:04 6:09/M
2 Natalie Webb Allen Park MI 196 18 2 19:29 6:17/M
3 Ersula Farrow Farmington Hills M 259 11 3 19:41 6:21/M
Overall Female Masters Winners
Place Name City Bib No Age Overall Time Pace
1 Ella Willis 274 51 10 21:21 6:53/M
2 Maggy Zidar Pontiac MI 200 59 22 23:55 7:43/M
3 Carrie Carpenter Dearborn MI 169 99 24 24:02 7:45/M
Female 14 and under
Place Name City Bib No Age Overall Time Pace
1 Allison Renko Dearborn MI 109 14 16 23:20 7:32/M
2 Lindsey Brewis Dearborn MI 186 13 18 23:24 7:33/M
3 Katherine Lieblang Dearborn 60 14 23 23:59 7:44/M
4 Stacy Collins Dearborn MI 208 13 34 25:18 8:10/M
5 Hannah Moore Taylor 1 13 36 25:42 8:17/M
6 Louise Sawaya Westland 126 14 42 26:26 8:32/M
7 Taylor Barry Dearborn 23 10 57 27:27 8:51/M
8 Isabelle Clark Dearborn MI 46 10 58 27:28 8:52/M
9 Margaret Lacey Dearborn 12 11 72 29:26 9:30/M
10 Elena Tantillo Dearborn 50 13 74 29:43 9:35/M
11 Amanda Tokarski Westland 66 14 77 30:26 9:49/M
12 Noelle Hamid Dearborn Hgts 121 10 78 30:27 9:49/M
13 Maryann Myler Dearborn MI 267 12 79 30:41 9:54/M
14 Maddie Rich Dearborn 158 14 83 31:37 10:12/M
15 Danielle Nazarek Dearborn 150 14 84 31:39 10:13/M
16 Rachel Jones Dearborn MI 119 14 85 31:40 10:13/M
17 Mallory Myler Dearborn MI 266 14 96 33:54 10:56/M
18 Bradley Ann Schock Dearborn MI 182 14 97 33:55 10:56/M
Female 15 to 19
Place Name City Bib No Age Overall Time Pace
1 Christina Farron Farmington Hills M 258 18 4 19:54 6:25/M
2 Michelle Kerr Dearborn 117 15 5 20:08 6:30/M
3 Erica Crane Dearborn MI 189 17 6 20:09 6:30/M
4 Winonah Krug Monroe MI 28 17 7 20:11 6:31/M
5 Courtney Brewis Dearborn MI 187 18 8 20:34 6:38/M
6 MacKenzie Brewis Dearborn MI 185 15 9 20:44 6:41/M
7 Courtney Plummer Garden City MI 114 19 11 21:43 7:00/M
8 Kaitlin Fenech Livonia 112 17 12 21:49 7:02/M
9 Cassandra Coffman Chelsea MI 81 18 13 21:59 7:05/M
10 Anne Okonowski Dearborn 52 15 14 22:24 7:14/M
11 Jamie Wick Pinckney MI 115 18 15 23:15 7:30/M
12 Angelica Arriola Canton 65 15 17 23:21 7:32/M
13 Melissa Mack Dearborn MI 49 16 19 23:26 7:34/M
14 Emily Oprish Dearborn MI 235 18 20 23:41 7:38/M
15 Ashley Hayden Canton 113 17 21 23:48 7:41/M
16 Kenia Perez-Aragon Dearborn Hgts. 165 16 27 24:32 7:55/M
17 Lauren Zigman Chelsea MI 130 16 28 24:38 7:57/M
18 Liz Dachs Waterford 106 17 29 24:50 8:01/M
19 Katherine Conklin Livonia 116 18 31 24:59 8:04/M
20 Victoria Tokarski Westland 67 17 37 25:48 8:19/M
21 Julia McLean Dearborn 6 18 38 25:58 8:23/M
22 Kristen Boguslaski Dearborn Hgts. 143 19 40 26:06 8:25/M
23 Danielle White Westland 163 16 46 26:45 8:38/M
24 Marie Brichta Dearborn 100 19 47 26:49 8:39/M
25 Margaret Tantillo Dearborn MI 188 18 52 27:03 8:44/M
26 Jill Grabowski Northville 53 17 53 27:08 8:45/M
27 Kaitlyn Kus W. Bloomfield 93 16 55 27:19 8:49/M
28 Angeline Sawaya Westland 125 16 59 27:34 8:54/M
29 Kristen Bentley Waterford MI 135 19 61 28:09 9:05/M
30 Alexandria Bochenek Dearborn 137 17 68 29:11 9:25/M
31 Kayla Kuffner Dearborn 164 17 70 29:23 9:29/M
32 Liz Arroyo Dearborn Hgts. 151 16 71 29:24 9:29/M
33 Mary Kate Tantillo Dearborn MI 51 16 73 29:35 9:33/M
34 Christine Monley Redford 140 15 100 34:37 11:10/M
35 Jessica White Livonia 68 15 101 35:09 11:20/M
Female 20 to 24
Place Name City Bib No Age Overall Time Pace
1 Sarah Rivard Dearborn MI 221 20 25 24:12 7:48/M
2 Jessica Muscat Dearborn Heights M 75 24 56 27:20 8:49/M
3 Rebecca Leonard Dearborn 96 23 64 28:36 9:14/M
4 Katherine McKeon Grosse Pte. Park M 210 20 91 33:18 10:45/M
5 Erica Moccia Dearborn Hgts. 7 21 93 33:34 10:50/M
Female 25 to 29
Place Name City Bib No Age Overall Time Pace
1 Pam Brust Canton MI 129 26 30 24:55 8:02/M
2 Melinda Mitchell Melvindale MI 26 25 45 26:43 8:37/M
3 Kelly Wehrmeister Westland MI 240 29 49 26:52 8:40/M
4 Kristy Conniff Northville MI 277 28 63 28:15 9:07/M
5 Rebecca Mitchell Melvindale MI 73 27 80 30:43 9:55/M
6 Jeanise Butterfield Royal Oak 122 26 88 32:18 10:25/M
7 Stephanie Salinas Dearborn 16 26 92 33:32 10:49/M
8 Chelsea Cunliffe Kalamazoo MI 206 25 94 33:38 10:51/M
Female 30 to 34
Place Name City Bib No Age Overall Time Pace
1 Beth Hackleman Grosse Pte. Park M 253 30 51 26:59 8:42/M
2 Abby Anders Dearborn Hgts. 42 31 67 29:08 9:24/M
3 Holly Olson Redford MI 61 31 69 29:15 9:26/M
4 Poppy Coffee Dearborn MI 86 33 95 33:46 10:54/M
Female 35 to 39
Place Name City Bib No Age Overall Time Pace
1 Denise Dashner Temperance MI 30 39 39 26:02 8:24/M
2 Charlene Lepane Royal Oak MI 83 36 43 26:27 8:32/M
3 Kristen Zanetti Trenton MI 257 39 50 26:57 8:42/M
4 Dawn Paluszny Canton 21 38 54 27:10 8:46/M
5 Fumiko Malave Dearborn Hgts. 95 36 60 27:43 8:56/M
6 Margaret Mason Dearborn MI 79 37 66 28:54 9:19/M
Female 40 to 44
Place Name City Bib No Age Overall Time Pace
1 Sherri Dziadzio Dearborn MI 223 43 26 24:18 7:50/M
2 Susan Gay Dearborn MI 72 42 33 25:09 8:07/M
3 Linda Myler Dearborn MI 264 44 41 26:09 8:26/M
4 Cheryl Polakowski Dearborn MI 213 40 65 28:41 9:15/M
5 Suzanne Clark Dearborn MI 45 40 81 30:52 9:57/M
6 Stephanie Eisenberg Farmington Hills M 77 44 90 32:39 10:32/M
7 Kathy Duquette Dearborn MI 271 44 98 33:59 10:58/M
8 Deb Strautz Livonia MI 242 44 99 34:22 11:05/M
9 Violeta Bozinovich Dearborn Hgts. 149 42 102 38:06 12:17/M
Female 45 to 49
Place Name City Bib No Age Overall Time Pace
1 Denise Grabowski Northville 44 45 32 25:06 8:06/M
2 Rita Dachs Waterford MI 105 46 35 25:33 8:15/M
3 Gretchen Bruce Dearborn MI 225 45 44 26:34 8:34/M
4 Deb Barry Dearborn 22 46 76 30:18 9:46/M
5 Jennifer Wiergowski Brighton 124 45 86 31:47 10:15/M
6 Valerie Michel Bloomfield 38 48 87 31:57 10:18/M
7 Kathleen Mangulabnan Livonia 37 46 89 32:36 10:31/M
8 Sharon Rivera Southfield MI 85 46 104 38:45 12:30/M
Female 50 to 54
Place Name City Bib No Age Overall Time Pace
1 Lisa Campbell Dearborn MI 238 54 48 26:50 8:39/M
Female 55 to 59
Place Name City Bib No Age Overall Time Pace
1 Maureen Webster Dearborn MI 8 59 62 28:13 9:06/M
2 Carol Suarez Dearborn MI 175 55 75 30:16 9:46/M
3 Cathie Creely Dearborn MI 74 55 103 38:16 12:21/M
Female 70 to 74
Place Name City Bib No Age Overall Time Pace
1 Merion Knight Detroit MI 195 72 82 30:57 9:59/M


Dearborn, Mi
Provided by Gary Olsen